Time;durP1;ratioP1;P1;durP2;ratioP2;P2;SDS_P1;SDS_P2;PMS_P1;PMS_P2;Temp;Humidity;BMP_temperature;BMP_pressure;BME280_temperature;BME280_humidity;BME280_pressure;Samples;Min_cycle;Max_cycle;Signal;HPM_P1;HPM_P2
2021/10/08 00:01:44;;;;;;;6.05;2.10;;;;;;;13.39;80.85;98386.13;4998970;28;20077;-94
2021/10/08 00:04:10;;;;;;;6.63;2.80;;;;;;;13.33;81.08;98381.06;4999228;28;20050;-93
2021/10/08 00:06:36;;;;;;;4.47;2.00;;;;;;;13.35;80.89;98380.03;5001290;28;20077;-94
2021/10/08 00:09:03;;;;;;;7.03;2.00;;;;;;;13.40;80.82;98392.34;4998846;28;20045;-93
2021/10/08 00:11:29;;;;;;;7.60;2.10;;;;;;;13.34;81.03;98391.69;4999838;28;20051;-96
2021/10/08 00:13:56;;;;;;;8.02;2.85;;;;;;;13.26;80.63;98384.91;4999952;28;20424;-94
2021/10/08 00:16:23;;;;;;;5.68;1.92;;;;;;;13.21;80.58;98373.56;4998536;28;20061;-93
2021/10/08 00:18:49;;;;;;;5.10;2.00;;;;;;;13.26;80.81;98383.09;5000505;28;20125;-95
2021/10/08 00:21:16;;;;;;;4.30;1.88;;;;;;;13.19;80.81;98386.13;5000882;28;20041;-94
2021/10/08 00:23:42;;;;;;;4.43;1.90;;;;;;;13.23;80.76;98391.25;5000182;28;20038;-94
2021/10/08 00:26:08;;;;;;;3.53;1.70;;;;;;;13.14;80.95;98381.84;5000006;28;20051;-95
2021/10/08 00:28:34;;;;;;;4.15;1.90;;;;;;;13.19;81.36;98404.81;4997815;28;20507;-94
2021/10/08 00:31:02;;;;;;;4.43;1.80;;;;;;;13.20;80.43;98401.19;5000475;28;20042;-94
2021/10/08 00:33:28;;;;;;;3.70;1.70;;;;;;;13.37;80.08;98419.19;4999299;28;20130;-93
2021/10/08 00:35:54;;;;;;;3.13;1.67;;;;;;;13.18;80.22;98387.03;5000448;28;20066;-96
2021/10/08 00:38:20;;;;;;;5.20;2.00;;;;;;;13.25;79.57;98407.19;5000653;28;20496;-95
2021/10/08 00:40:47;;;;;;;5.25;1.90;;;;;;;13.31;79.51;98409.63;4999655;28;20065;-95
2021/10/08 00:43:17;;;;;;;4.05;1.75;;;;;;;13.30;79.88;98408.78;4997829;28;20081;-95
2021/10/08 00:45:43;;;;;;;3.85;1.83;;;;;;;13.31;79.52;98421.16;4998664;28;20039;-95
2021/10/08 00:48:11;;;;;;;5.53;1.70;;;;;;;13.34;79.56;98429.06;4999595;28;20061;-95
2021/10/08 00:50:38;;;;;;;4.90;1.90;;;;;;;13.24;79.66;98403.66;5001036;28;20051;-94
2021/10/08 00:53:05;;;;;;;3.65;2.08;;;;;;;13.30;80.09;98414.13;4998527;28;20046;-93
2021/10/08 00:55:32;;;;;;;5.15;2.17;;;;;;;13.32;79.25;98414.06;4999070;28;20109;-94
2021/10/08 00:57:59;;;;;;;4.93;2.00;;;;;;;13.30;78.83;98407.91;4999799;28;20454;-95
2021/10/08 01:00:26;;;;;;;3.15;1.70;;;;;;;13.34;79.45;98421.06;4997378;28;20061;-92
2021/10/08 01:02:52;;;;;;;4.35;2.38;;;;;;;13.30;78.76;98419.44;4999439;28;20050;-95
2021/10/08 01:05:20;;;;;;;4.38;1.90;;;;;;;13.36;78.68;98421.00;4999912;28;20042;-94
2021/10/08 01:07:46;;;;;;;2.95;1.73;;;;;;;13.34;78.79;98414.84;4999962;28;20050;-94
2021/10/08 01:10:12;;;;;;;2.75;1.73;;;;;;;13.43;78.62;98425.13;5000542;28;20052;-94
2021/10/08 01:12:40;;;;;;;5.72;2.10;;;;;;;13.35;78.31;98422.78;5001111;28;20066;-94
2021/10/08 01:15:07;;;;;;;2.67;1.58;;;;;;;13.40;79.03;98435.94;4999858;28;20062;-95
2021/10/08 01:17:33;;;;;;;4.00;1.83;;;;;;;13.27;79.06;98416.91;4999475;28;20042;-95
2021/10/08 01:20:02;;;;;;;3.42;2.20;;;;;;;13.46;79.00;98446.34;5001426;28;20134;-95
2021/10/08 01:22:28;;;;;;;;;;;;;;;13.50;78.58;98452.44;5000973;28;20046;-94
2021/10/08 01:24:54;;;;;;;2.88;1.88;;;;;;;13.30;79.28;98426.59;5003121;28;20393;-94
2021/10/08 01:27:21;;;;;;;4.90;1.80;;;;;;;13.39;78.40;98436.00;5005392;28;20051;-95
2021/10/08 01:29:50;;;;;;;3.80;1.88;;;;;;;13.43;78.32;98435.81;5002843;28;20053;-93
2021/10/08 01:32:16;;;;;;;4.82;1.98;;;;;;;13.41;77.66;98421.66;5002965;28;20069;-94
2021/10/08 01:34:42;;;;;;;5.97;2.25;;;;;;;13.40;77.31;98417.22;5003274;28;20472;-95
2021/10/08 01:37:10;;;;;;;7.00;2.10;;;;;;;13.49;77.74;98432.88;5003733;28;20046;-95
2021/10/08 01:39:36;;;;;;;3.53;2.00;;;;;;;13.39;77.84;98420.00;5004640;28;20049;-94
2021/10/08 01:42:03;;;;;;;6.00;2.33;;;;;;;13.42;78.07;98433.19;5001875;28;20567;-96
2021/10/08 01:44:29;;;;;;;8.52;2.30;;;;;;;13.27;77.77;98398.19;5002427;28;20043;-95
2021/10/08 01:46:55;;;;;;;3.35;2.00;;;;;;;13.26;78.42;98406.28;5003914;28;20085;-95
2021/10/08 01:49:21;;;;;;;5.63;2.20;;;;;;;13.28;77.73;98394.63;5003708;28;20054;-95
2021/10/08 01:51:47;;;;;;;4.25;2.03;;;;;;;13.20;77.94;98399.38;5002525;28;20458;-94
2021/10/08 01:54:14;;;;;;;3.72;1.95;;;;;;;13.19;78.17;98399.47;5002769;28;20062;-95
2021/10/08 01:56:44;;;;;;;4.22;2.15;;;;;;;13.33;77.91;98421.97;5001571;28;20066;-95
2021/10/08 01:59:10;;;;;;;4.63;1.90;;;;;;;13.35;78.18;98421.91;5002688;28;20050;-95
2021/10/08 02:01:36;;;;;;;7.70;1.98;;;;;;;13.17;78.70;98398.66;5002584;28;20042;-94
2021/10/08 02:04:02;;;;;;;4.15;2.10;;;;;;;13.29;78.24;98422.19;5002554;28;20113;-93
2021/10/08 02:06:28;;;;;;;2.97;1.77;;;;;;;13.26;77.83;98411.63;5001251;28;20088;-93
2021/10/08 02:08:54;;;;;;;2.95;1.83;;;;;;;13.40;77.03;98419.03;5000683;28;20080;-94
2021/10/08 02:11:21;;;;;;;6.18;1.98;;;;;;;13.28;77.56;98396.41;5000417;28;20073;-93
2021/10/08 02:13:47;;;;;;;8.38;2.13;;;;;;;13.24;76.82;98394.78;5002094;28;20042;-93
2021/10/08 02:16:14;;;;;;;4.68;2.10;;;;;;;13.43;75.71;98398.41;5001805;28;20563;-94
2021/10/08 02:18:40;;;;;;;5.55;1.90;;;;;;;13.54;74.98;98413.97;5002388;28;20050;-93
2021/10/08 02:21:06;;;;;;;5.85;2.17;;;;;;;13.59;75.07;98421.78;5002181;28;20068;-95
2021/10/08 02:23:32;;;;;;;3.65;2.10;;;;;;;13.57;74.82;98416.47;5000433;28;20539;-95
2021/10/08 02:25:58;;;;;;;4.05;2.08;;;;;;;13.56;74.70;98420.09;5002865;28;20046;-94
2021/10/08 02:28:25;;;;;;;3.33;1.80;;;;;;;13.64;74.26;98428.66;5002229;28;20510;-93
2021/10/08 02:30:51;;;;;;;6.65;2.08;;;;;;;13.63;74.52;98436.72;5000872;28;20050;-96
2021/10/08 02:33:17;;;;;;;5.30;1.90;;;;;;;13.52;74.56;98419.38;5002477;28;20043;-95
2021/10/08 02:35:43;;;;;;;4.20;1.98;;;;;;;13.57;74.35;98421.81;5002023;28;20043;-93
2021/10/08 02:38:09;;;;;;;3.20;1.90;;;;;;;13.58;74.27;98415.56;5002100;28;20034;-95
2021/10/08 02:40:35;;;;;;;2.83;1.60;;;;;;;13.64;74.19;98419.75;5001305;28;20050;-92
2021/10/08 02:43:02;;;;;;;3.28;1.70;;;;;;;13.68;74.22;98435.56;5000537;28;20047;-94
2021/10/08 02:45:30;;;;;;;5.80;1.70;;;;;;;13.56;74.37;98417.44;5002635;28;20030;-93
2021/10/08 02:47:56;;;;;;;2.15;1.55;;;;;;;13.60;75.09;98437.75;5000155;28;20102;-94
2021/10/08 02:50:23;;;;;;;5.88;1.90;;;;;;;13.53;74.78;98412.22;5001532;28;20054;-95
2021/10/08 02:52:49;;;;;;;3.20;1.63;;;;;;;13.53;75.57;98430.91;5001104;28;20046;-93
2021/10/08 02:55:15;;;;;;;7.13;2.05;;;;;;;13.47;75.04;98416.03;5000157;28;20046;-95
2021/10/08 02:57:41;;;;;;;2.97;1.77;;;;;;;13.58;75.20;98434.28;4999288;28;20042;-95
2021/10/08 03:00:09;;;;;;;3.15;1.52;;;;;;;13.58;74.99;98418.25;4999817;28;20046;-94
2021/10/08 03:02:37;;;;;;;4.28;1.90;;;;;;;13.55;75.69;98429.94;5000143;28;20523;-93
2021/10/08 03:05:04;;;;;;;4.70;1.88;;;;;;;13.43;76.16;98414.44;4999777;28;20043;-94
2021/10/08 03:07:30;;;;;;;7.20;1.90;;;;;;;13.48;76.25;98424.91;4999283;28;20039;-95
2021/10/08 03:09:56;;;;;;;5.50;2.03;;;;;;;13.50;76.35;98433.72;5000588;28;20568;-94
2021/10/08 03:12:22;;;;;;;4.35;1.70;;;;;;;13.43;77.08;98425.13;4999743;28;20050;-94
2021/10/08 03:14:48;;;;;;;4.78;2.08;;;;;;;13.61;76.30;98452.81;5000690;28;20062;-93
2021/10/08 03:17:15;;;;;;;3.63;1.65;;;;;;;13.66;75.51;98436.56;5000185;28;20468;-94
2021/10/08 03:19:43;;;;;;;5.70;1.95;;;;;;;13.68;76.12;98446.25;5000557;28;20133;-94
2021/10/08 03:22:10;;;;;;;3.03;1.77;;;;;;;13.60;76.27;98440.41;4999359;28;20178;-95
2021/10/08 03:24:36;;;;;;;4.15;1.83;;;;;;;13.52;76.86;98437.22;4994892;28;20041;-93
2021/10/08 03:27:02;;;;;;;5.70;1.88;;;;;;;13.43;77.87;98435.81;4995679;28;20041;-95
2021/10/08 03:29:28;;;;;;;7.03;2.10;;;;;;;13.44;78.69;98442.00;4996313;28;20039;-93
2021/10/08 03:31:54;;;;;;;6.60;2.08;;;;;;;13.40;79.36;98449.28;4995893;28;20039;-94
2021/10/08 03:34:20;;;;;;;6.93;2.50;;;;;;;13.29;79.48;98439.09;5000374;28;20088;-94
2021/10/08 03:39:48;;;;;;;4.18;2.22;;;;;;;13.24;80.65;98446.38;5135606;27;20380;-96
2021/10/08 03:42:18;;;;;;;4.18;2.30;;;;;;;13.26;79.69;98460.53;5142339;27;20067;-95
2021/10/08 03:44:52;;;;;;;4.97;2.30;;;;;;;13.13;81.07;98443.31;5148071;27;20129;-94
2021/10/08 03:47:26;;;;;;;3.72;2.08;;;;;;;13.07;81.57;98433.75;5141812;27;20418;-94
2021/10/08 03:49:52;;;;;;;6.78;2.10;;;;;;;12.99;83.11;98440.34;5144069;27;20031;-94
2021/10/08 03:52:18;;;;;;;6.13;2.13;;;;;;;12.91;81.85;98425.53;5142480;27;20107;-92
2021/10/08 03:54:44;;;;;;;6.88;2.47;;;;;;;13.07;79.50;98435.56;5149518;27;20111;-96
2021/10/08 03:57:11;;;;;;;4.35;2.10;;;;;;;13.11;80.59;98442.50;5139255;27;20460;-96
2021/10/08 03:59:37;;;;;;;6.03;2.00;;;;;;;13.08;80.87;98442.66;5142910;27;20074;-94
2021/10/08 04:02:03;;;;;;;3.85;2.10;;;;;;;13.14;79.63;98456.59;5134455;27;20036;-94
2021/10/08 04:04:29;;;;;;;4.25;2.05;;;;;;;13.20;79.56;98451.94;5135632;27;20535;-94
2021/10/08 04:06:55;;;;;;;3.53;1.80;;;;;;;13.20;79.57;98446.59;5135603;27;20556;-94
2021/10/08 04:09:21;;;;;;;8.23;2.20;;;;;;;13.26;79.53;98459.69;5137618;27;20049;-94
2021/10/08 04:11:47;;;;;;;4.70;1.95;;;;;;;13.43;77.85;98475.00;5141305;27;20063;-96
2021/10/08 04:14:14;;;;;;;5.70;2.08;;;;;;;13.32;77.62;98446.09;5151905;27;20044;-95
2021/10/08 04:16:40;;;;;;;8.13;2.22;;;;;;;13.34;77.54;98452.25;5138308;27;20112;-95
2021/10/08 04:19:06;;;;;;;6.75;2.13;;;;;;;13.47;77.76;98476.63;5138422;27;20488;-96
2021/10/08 04:21:33;;;;;;;4.47;2.00;;;;;;;13.39;77.23;98452.91;5139408;27;20047;-94
2021/10/08 04:23:59;;;;;;;6.10;2.13;;;;;;;13.46;77.11;98488.22;5138508;27;20039;-94
2021/10/08 04:26:25;;;;;;;7.85;2.22;;;;;;;13.44;76.53;98477.59;5135690;27;20492;-94
2021/10/08 04:28:51;;;;;;;7.40;2.42;;;;;;;13.50;75.97;98463.13;5143605;27;20047;-96
2021/10/08 04:31:22;;;;;;;5.60;2.03;;;;;;;13.60;74.81;98471.59;5137186;27;20059;-94
2021/10/08 04:33:48;;;;;;;6.60;2.20;;;;;;;13.73;74.59;98492.38;5147854;27;20072;-95
2021/10/08 04:36:14;;;;;;;8.95;2.10;;;;;;;13.73;74.26;98489.69;5146935;27;20528;-95
2021/10/08 04:38:40;;;;;;;7.07;2.58;;;;;;;13.65;74.91;98491.81;5137349;27;20114;-92
2021/10/08 04:41:06;;;;;;;5.28;2.20;;;;;;;13.79;74.24;98509.91;5145133;27;20039;-94
2021/10/08 04:43:32;;;;;;;5.93;2.50;;;;;;;13.79;74.66;98504.56;5146514;27;20051;-94
2021/10/08 04:45:58;;;;;;;7.38;2.60;;;;;;;13.70;74.88;98494.28;5146603;27;20050;-94
2021/10/08 04:48:25;;;;;;;6.05;2.00;;;;;;;13.55;75.81;98483.38;5154793;27;20050;-94
2021/10/08 04:50:51;;;;;;;13.43;3.00;;;;;;;13.49;75.87;98472.94;5128298;27;20088;-95
2021/10/08 04:53:19;;;;;;;6.25;2.20;;;;;;;13.52;76.71;98490.63;5125199;27;20424;-95
2021/10/08 04:55:46;;;;;;;5.73;2.10;;;;;;;13.49;75.12;98480.09;5124523;28;20044;-94
2021/10/08 04:58:16;;;;;;;3.72;1.90;;;;;;;13.53;76.10;98489.69;5122596;28;20048;-94
2021/10/08 05:00:42;;;;;;;6.05;2.15;;;;;;;13.44;76.47;98487.41;5124891;27;20370;-95
2021/10/08 05:03:10;;;;;;;4.35;2.00;;;;;;;13.45;77.30;98483.84;5122154;27;20035;-94
2021/10/08 05:05:38;;;;;;;6.03;2.30;;;;;;;13.37;77.98;98477.94;5123110;27;20073;-93
2021/10/08 05:08:05;;;;;;;6.40;2.67;;;;;;;13.30;78.04;98478.19;5126039;27;20035;-94
2021/10/08 05:10:32;;;;;;;9.10;2.70;;;;;;;13.29;75.67;98463.13;5125290;27;20047;-93
2021/10/08 05:12:58;;;;;;;5.80;2.30;;;;;;;13.30;75.66;98469.34;5124014;27;20067;-95
2021/10/08 05:15:24;;;;;;;5.07;2.35;;;;;;;13.28;78.13;98469.38;5121344;28;20075;-95
2021/10/08 05:17:51;;;;;;;9.18;2.67;;;;;;;13.33;75.41;98470.03;5132741;27;20039;-94
2021/10/08 05:20:17;;;;;;;8.25;2.63;;;;;;;13.51;74.06;98488.88;5141934;27;20047;-95
2021/10/08 05:22:44;;;;;;;9.18;2.70;;;;;;;13.57;73.92;98485.94;5139220;27;20055;-94
2021/10/08 05:25:10;;;;;;;9.48;2.80;;;;;;;13.55;74.68;98495.84;5143533;27;20045;-96
2021/10/08 05:30:48;;;;;;;6.72;2.80;;;;;;;13.48;75.36;98503.25;5141083;27;20555;-96
2021/10/08 05:33:14;;;;;;;13.27;2.90;;;;;;;13.45;74.79;98498.03;5139052;27;20134;-93
2021/10/08 05:35:40;;;;;;;7.00;2.60;;;;;;;13.42;75.36;98498.16;5123611;27;20092;-94
2021/10/08 05:38:08;;;;;;;8.02;2.97;;;;;;;13.43;75.27;98497.25;5119222;28;20047;-94
2021/10/08 05:40:34;;;;;;;6.80;2.92;;;;;;;13.42;76.36;98505.31;5119737;28;20051;-94
2021/10/08 05:43:00;;;;;;;9.40;3.42;;;;;;;13.52;75.11;98531.56;5120571;28;20431;-95
2021/10/08 05:45:26;;;;;;;9.55;3.08;;;;;;;13.51;74.53;98531.63;5118038;28;20051;-94
2021/10/08 05:47:52;;;;;;;11.70;3.20;;;;;;;13.56;73.28;98532.31;5119696;28;20056;-95
2021/10/08 05:50:18;;;;;;;11.43;3.30;;;;;;;13.56;74.66;98526.97;5120606;28;20044;-94
2021/10/08 05:52:44;;;;;;;9.77;3.67;;;;;;;13.58;74.25;98521.56;5120371;28;20035;-93
2021/10/08 05:55:11;;;;;;;7.22;2.90;;;;;;;13.72;73.97;98541.38;5119612;28;20370;-93
2021/10/08 05:57:38;;;;;;;5.18;2.63;;;;;;;13.80;74.31;98543.75;5117685;28;20039;-94
2021/10/08 06:00:05;;;;;;;6.88;2.72;;;;;;;13.68;73.05;98520.22;5135834;27;20050;-95
2021/10/08 06:02:31;;;;;;;11.32;3.10;;;;;;;13.74;73.33;98531.50;5137170;27;20088;-95
2021/10/08 06:04:57;;;;;;;11.02;3.08;;;;;;;13.81;73.02;98518.72;5137780;27;20043;-94
2021/10/08 06:07:23;;;;;;;11.65;2.92;;;;;;;13.96;72.82;98530.56;5140128;27;20051;-95
2021/10/08 06:09:49;;;;;;;6.65;2.30;;;;;;;14.03;72.63;98537.38;5139676;27;20516;-94
2021/10/08 06:12:16;;;;;;;6.65;2.50;;;;;;;14.03;72.78;98516.00;5148860;27;20095;-96
2021/10/08 06:14:43;;;;;;;6.75;2.10;;;;;;;14.06;71.59;98520.34;5144222;27;20043;-96
2021/10/08 06:17:09;;;;;;;5.90;2.58;;;;;;;14.17;72.11;98526.06;5142709;27;20042;-96
2021/10/08 06:19:35;;;;;;;7.75;2.30;;;;;;;14.16;72.37;98517.16;5143743;27;20074;-96
2021/10/08 06:22:01;;;;;;;8.77;2.40;;;;;;;14.26;72.54;98546.16;5146470;27;20047;-96
2021/10/08 06:24:28;;;;;;;8.10;2.35;;;;;;;14.30;71.72;98518.34;5139978;27;20043;-96
2021/10/08 06:26:54;;;;;;;9.30;2.40;;;;;;;14.34;72.30;98542.19;5146611;27;20050;-96
2021/10/08 06:29:21;;;;;;;7.80;2.50;;;;;;;14.34;71.79;98539.53;5141713;27;20039;-96
2021/10/08 06:31:47;;;;;;;6.32;2.15;;;;;;;14.40;72.69;98533.03;5139726;27;20051;-95
2021/10/08 06:34:50;;;;;;;6.43;2.10;;;;;;;14.55;72.28;98574.25;5138578;27;20096;-96
2021/10/08 06:37:46;;;;;;;5.55;2.28;;;;;;;14.61;72.85;98567.78;5057890;28;20045;-96
2021/10/08 06:40:30;;;;;;;6.65;2.30;;;;;;;14.52;71.62;98545.81;5059351;28;20064;-96
2021/10/08 06:42:58;;;;;;;6.93;2.35;;;;;;;14.52;72.55;98563.69;5117464;28;20043;-95
2021/10/08 06:45:26;;;;;;;10.48;2.42;;;;;;;14.40;72.21;98559.78;5121019;28;20073;-95
2021/10/08 06:47:52;;;;;;;8.15;2.30;;;;;;;14.48;72.05;98591.53;5119742;28;20043;-95
2021/10/08 06:50:18;;;;;;;6.63;2.38;;;;;;;14.37;72.78;98589.34;5118586;28;20046;-96
2021/10/08 06:52:44;;;;;;;4.45;2.00;;;;;;;14.28;72.70;98587.94;5122872;28;20048;-94
2021/10/08 06:55:10;;;;;;;10.20;2.33;;;;;;;14.36;72.87;98607.19;5121354;28;20039;-95
2021/10/08 06:57:37;;;;;;;7.32;2.15;;;;;;;14.17;73.26;98583.06;5131048;27;20500;-96
2021/10/08 07:00:04;;;;;;;7.13;2.22;;;;;;;14.18;73.46;98589.28;5141271;27;20048;-96
2021/10/08 07:02:33;;;;;;;5.75;1.88;;;;;;;14.29;71.73;98591.47;5140678;27;20039;-96
2021/10/08 07:04:59;;;;;;;4.95;2.05;;;;;;;14.47;72.24;98614.75;5140485;27;20043;-96
2021/10/08 07:07:27;;;;;;;6.70;2.10;;;;;;;14.41;73.29;98601.63;5140335;27;20047;-96
2021/10/08 07:09:53;;;;;;;5.07;1.92;;;;;;;14.31;73.13;98597.63;5139219;27;20099;-93
2021/10/08 07:12:19;;;;;;;7.53;2.10;;;;;;;14.43;73.96;98625.66;5142935;27;20074;-92
2021/10/08 07:14:46;;;;;;;6.45;2.30;;;;;;;14.21;73.56;98599.88;5121318;28;20046;-93
2021/10/08 07:17:12;;;;;;;5.28;1.70;;;;;;;14.27;74.59;98620.09;5118730;28;20331;-93
2021/10/08 07:19:40;;;;;;;3.58;1.70;;;;;;;14.15;75.30;98609.00;5127908;27;20047;-95
2021/10/08 07:22:06;;;;;;;7.35;2.28;;;;;;;14.14;75.64;98607.28;5130495;27;20052;-94
2021/10/08 07:24:33;;;;;;;7.60;2.17;;;;;;;14.29;76.24;98644.97;5100230;28;20079;-94
2021/10/08 07:26:59;;;;;;;4.78;2.10;;;;;;;14.26;76.53;98626.41;5094990;28;20091;-94
2021/10/08 07:29:25;;;;;;;4.78;1.90;;;;;;;14.27;77.52;98633.47;5094704;28;20105;-93
2021/10/08 07:31:51;;;;;;;4.75;1.67;;;;;;;14.26;76.49;98626.41;5095251;28;20040;-94
2021/10/08 07:34:16;;;;;;;4.63;2.17;;;;;;;14.23;78.30;98623.88;5097488;28;20055;-94
2021/10/08 07:36:46;;;;;;;3.85;1.63;;;;;;;14.13;76.63;98615.38;5099161;28;20076;-96
2021/10/08 07:39:12;;;;;;;3.58;1.65;;;;;;;14.05;76.15;98615.72;5100199;28;20044;-95
2021/10/08 07:41:39;;;;;;;6.03;1.98;;;;;;;14.14;75.95;98609.97;5106815;28;20405;-95
2021/10/08 07:44:05;;;;;;;6.22;2.00;;;;;;;14.32;74.79;98615.44;5118033;28;20521;-94
2021/10/08 07:46:31;;;;;;;6.13;1.80;;;;;;;14.55;75.24;98634.03;5117335;28;20051;-94
2021/10/08 07:48:57;;;;;;;4.10;1.65;;;;;;;14.60;74.41;98640.97;5120955;28;20055;-95
2021/10/08 07:51:23;;;;;;;4.30;1.80;;;;;;;14.51;73.40;98616.34;5109777;28;20039;-94
2021/10/08 07:53:50;;;;;;;5.03;1.67;;;;;;;14.54;73.75;98620.69;5120387;28;20044;-94
2021/10/08 07:56:16;;;;;;;3.70;1.50;;;;;;;14.66;72.83;98643.34;5121652;28;20083;-94
2021/10/08 07:58:42;;;;;;;4.50;1.75;;;;;;;14.66;72.54;98646.03;5106540;28;20114;-93
2021/10/08 08:01:08;;;;;;;5.82;1.75;;;;;;;14.48;73.36;98623.63;5096766;28;20052;-94
2021/10/08 08:03:35;;;;;;;3.55;1.40;;;;;;;14.67;73.27;98635.25;5096123;28;20131;-95
2021/10/08 08:06:01;;;;;;;2.85;1.50;;;;;;;14.60;73.59;98657.03;5100608;28;20070;-92
2021/10/08 08:08:27;;;;;;;2.38;1.40;;;;;;;14.75;73.05;98646.50;5098163;28;20362;-95
2021/10/08 08:10:56;;;;;;;6.82;1.83;;;;;;;14.90;73.86;98657.44;5111413;28;20042;-94
2021/10/08 08:13:22;;;;;;;6.68;2.25;;;;;;;15.15;71.57;98641.94;5114948;28;20065;-92
2021/10/08 08:15:48;;;;;;;2.72;1.40;;;;;;;15.42;71.13;98665.69;5102442;28;20036;-94
2021/10/08 08:18:14;;;;;;;5.05;1.50;;;;;;;15.47;71.76;98644.88;5103481;28;20040;-93
2021/10/08 08:20:40;;;;;;;2.30;1.30;;;;;;;15.46;72.04;98669.94;5099662;28;20131;-94
2021/10/08 08:23:06;;;;;;;5.05;1.40;;;;;;;15.81;68.78;98673.59;5107563;28;20104;-93
2021/10/08 08:25:32;;;;;;;4.20;1.40;;;;;;;15.59;70.00;98664.84;5099988;28;20040;-94
2021/10/08 08:27:59;;;;;;;3.00;1.40;;;;;;;16.19;67.48;98667.22;5108056;28;20040;-96
2021/10/08 08:30:26;;;;;;;2.55;1.60;;;;;;;16.62;64.90;98659.59;5101220;28;20047;-95
2021/10/08 08:32:51;;;;;;;4.35;1.70;;;;;;;16.50;65.17;98622.66;5111287;28;20043;-94
2021/10/08 08:35:17;;;;;;;3.60;1.50;;;;;;;16.46;64.67;98654.19;5123228;28;20126;-93
2021/10/08 08:37:44;;;;;;;3.88;1.80;;;;;;;16.84;63.23;98638.72;5110484;28;20047;-94
2021/10/08 08:40:10;;;;;;;3.90;1.60;;;;;;;16.84;62.53;98630.66;5102080;28;20071;-93
2021/10/08 08:42:37;;;;;;;5.82;1.63;;;;;;;16.75;62.14;98628.44;5102850;28;20051;-94
2021/10/08 08:45:06;;;;;;;5.43;1.67;;;;;;;16.52;62.07;98613.59;5105392;28;20044;-94
2021/10/08 08:47:34;;;;;;;4.72;1.70;;;;;;;15.89;63.16;98592.75;5120045;28;20055;-95
2021/10/08 08:50:00;;;;;;;3.88;1.60;;;;;;;16.30;63.11;98615.69;5101811;28;20036;-93
2021/10/08 08:52:26;;;;;;;4.05;1.70;;;;;;;16.54;62.63;98582.16;5102110;28;20063;-94
2021/10/08 08:54:53;;;;;;;3.78;1.60;;;;;;;16.78;63.44;98597.88;5101093;28;20082;-94
2021/10/08 08:57:21;;;;;;;4.88;2.05;;;;;;;17.06;59.37;98620.56;5110766;28;20043;-94
2021/10/08 08:59:58;;;;;;;4.90;1.70;;;;;;;16.57;61.21;98613.34;5103152;28;20036;-93
2021/10/08 09:02:26;;;;;;;6.75;2.10;;;;;;;16.61;61.25;98594.31;5101454;28;20131;-94
2021/10/08 09:04:53;;;;;;;3.47;1.70;;;;;;;16.98;59.49;98619.19;5103437;28;20047;-92
2021/10/08 09:07:19;;;;;;;4.97;2.30;;;;;;;16.54;60.77;98603.63;5103953;28;20075;-94
2021/10/08 09:09:46;;;;;;;5.57;1.70;;;;;;;16.64;59.43;98609.38;5113693;28;20036;-95
2021/10/08 09:12:12;;;;;;;1.75;1.45;;;;;;;16.53;59.30;98593.84;5102934;28;20036;-93
2021/10/08 09:14:38;;;;;;;4.35;1.88;;;;;;;16.67;59.18;98608.34;5120443;28;20040;-93
2021/10/08 09:17:10;;;;;;;6.30;1.80;;;;;;;16.49;59.87;98616.44;5121560;28;20113;-93
2021/10/08 09:19:58;;;;;;;3.28;1.65;;;;;;;16.81;60.45;98604.00;5104746;28;20036;-92
2021/10/08 09:22:28;;;;;;;4.82;2.08;;;;;;;16.47;60.99;98623.72;5100078;28;20041;-93
2021/10/08 09:24:54;;;;;;;4.22;1.60;;;;;;;16.29;60.92;98613.97;5105130;28;20044;-92
2021/10/08 09:27:23;;;;;;;3.80;1.45;;;;;;;16.61;61.20;98641.75;5121243;28;20522;-94
2021/10/08 09:29:51;;;;;;;3.92;1.90;;;;;;;16.39;61.54;98631.28;5105001;28;20043;-96
2021/10/08 09:32:20;;;;;;;3.00;1.55;;;;;;;15.72;64.60;98641.91;5104103;28;20036;-94
2021/10/08 09:34:49;;;;;;;4.05;1.60;;;;;;;15.48;66.16;98653.78;5105835;28;20159;-94
2021/10/08 09:37:17;;;;;;;2.75;1.70;;;;;;;15.36;66.73;98640.03;5113481;28;20496;-95
2021/10/08 09:39:46;;;;;;;4.35;1.95;;;;;;;15.26;67.00;98646.78;5103941;28;20052;-94
2021/10/08 09:42:13;;;;;;;4.47;1.90;;;;;;;15.21;67.65;98656.84;5103635;28;20124;-92
2021/10/08 09:44:45;;;;;;;3.55;1.80;;;;;;;15.41;67.36;98659.44;5116313;28;20040;-93
2021/10/08 09:47:14;;;;;;;4.90;2.00;;;;;;;15.69;66.03;98647.34;5108237;28;20051;-93
2021/10/08 09:49:41;;;;;;;3.88;1.85;;;;;;;15.87;64.72;98624.13;5103641;28;20036;-95
2021/10/08 09:52:25;;;;;;;3.42;1.65;;;;;;;16.36;62.58;98640.38;5092319;28;20101;-95
2021/10/08 09:54:54;;;;;;;5.40;2.05;;;;;;;16.28;62.33;98617.59;5113109;28;20094;-96
2021/10/08 10:00:35;;;;;;;6.20;2.05;;;;;;;16.83;61.42;98642.38;5117038;27;20384;-95
2021/10/08 10:03:02;;;;;;;8.05;2.30;;;;;;;16.72;62.08;98634.00;5116321;28;20094;-94
2021/10/08 10:05:28;;;;;;;8.63;2.55;;;;;;;16.05;62.13;98618.78;5116540;28;20032;-96
2021/10/08 10:07:55;;;;;;;5.78;1.80;;;;;;;16.47;61.85;98628.22;5116708;28;20040;-94
2021/10/08 10:10:22;;;;;;;7.05;1.90;;;;;;;16.46;60.80;98611.25;5113979;28;20045;-92
2021/10/08 10:12:49;;;;;;;7.10;2.78;;;;;;;16.93;60.85;98645.41;5113367;28;20060;-93
2021/10/08 10:15:17;;;;;;;5.68;1.95;;;;;;;16.68;61.23;98640.50;5114067;28;20101;-95
2021/10/08 10:17:45;;;;;;;4.55;2.10;;;;;;;16.14;60.98;98647.81;5114330;28;20051;-94
2021/10/08 10:20:12;;;;;;;8.27;1.92;;;;;;;16.47;61.26;98652.38;5114447;28;20131;-93
2021/10/08 10:22:39;;;;;;;5.05;1.90;;;;;;;16.50;60.42;98649.50;5115179;28;20046;-94
2021/10/08 10:25:07;;;;;;;5.43;2.00;;;;;;;16.45;59.76;98656.94;5114961;28;20409;-94
2021/10/08 10:27:33;;;;;;;9.13;2.10;;;;;;;16.39;60.57;98655.44;5117063;28;20446;-94
2021/10/08 10:30:00;;;;;;;5.57;2.05;;;;;;;16.78;59.61;98665.00;5115095;28;20113;-93
2021/10/08 10:32:29;;;;;;;3.88;2.03;;;;;;;16.92;58.90;98677.75;5115091;28;20100;-93
2021/10/08 10:34:56;;;;;;;9.82;2.40;;;;;;;16.77;59.35;98674.03;5115846;28;20075;-96
2021/10/08 10:37:36;;;;;;;4.47;1.80;;;;;;;17.18;58.27;98658.34;5114221;28;20032;-94
2021/10/08 10:40:16;;;;;;;6.55;2.10;;;;;;;17.07;57.76;98641.97;5114506;28;20111;-93
2021/10/08 10:42:46;;;;;;;6.50;1.90;;;;;;;16.85;59.00;98653.03;5116894;28;20071;-93
2021/10/08 10:45:19;;;;;;;6.25;1.85;;;;;;;16.75;59.88;98651.75;5109317;28;20083;-94
2021/10/08 10:47:47;;;;;;;5.30;2.08;;;;;;;16.98;60.94;98655.88;5116155;28;20447;-94
2021/10/08 10:50:25;;;;;;;2.87;1.80;;;;;;;17.41;58.62;98649.00;5117039;28;20040;-95
2021/10/08 10:52:53;;;;;;;6.05;1.88;;;;;;;17.40;58.60;98651.78;5118243;28;20047;-94
2021/10/08 10:55:21;;;;;;;3.05;1.80;;;;;;;17.04;59.35;98658.25;5118200;28;20048;-95
2021/10/08 10:57:59;;;;;;;7.03;2.00;;;;;;;17.00;59.95;98673.69;5117947;28;20159;-95
2021/10/08 11:00:38;;;;;;;7.05;1.80;;;;;;;17.39;59.42;98688.53;5115644;28;20337;-94
2021/10/08 11:03:08;;;;;;;3.45;1.70;;;;;;;17.25;58.67;98648.13;5117367;28;20066;-94
2021/10/08 11:05:40;;;;;;;5.07;1.88;;;;;;;17.31;58.83;98677.34;5118384;28;20048;-95
2021/10/08 11:08:13;;;;;;;5.65;1.85;;;;;;;17.23;58.74;98656.28;5115814;28;20217;-96
2021/10/08 11:10:44;;;;;;;5.75;1.80;;;;;;;17.37;57.66;98684.19;5108068;28;20047;-95
2021/10/08 11:13:27;;;;;;;3.88;1.85;;;;;;;16.72;60.08;98676.06;5101625;28;20052;-94
2021/10/08 11:15:54;;;;;;;3.22;1.63;;;;;;;17.03;60.36;98672.66;5101211;28;20052;-95
2021/10/08 11:18:44;;;;;;;3.65;1.73;;;;;;;17.22;59.65;98694.84;5100690;28;20123;-94
2021/10/08 11:21:34;;;;;;;5.00;1.73;;;;;;;17.15;60.48;98697.94;5100254;28;20494;-94
2021/10/08 11:24:02;;;;;;;2.92;1.70;;;;;;;17.06;58.49;98669.78;5103534;28;20043;-95
2021/10/08 11:26:28;;;;;;;5.95;1.70;;;;;;;17.15;59.96;98671.09;5102398;28;20040;-94
2021/10/08 11:28:57;;;;;;;5.00;2.25;;;;;;;17.34;59.37;98681.69;5103230;28;20050;-94
2021/10/08 11:31:29;;;;;;;6.35;1.60;;;;;;;17.20;58.79;98658.28;5102430;28;20069;-95
2021/10/08 11:33:58;;;;;;;3.95;1.70;;;;;;;16.97;59.79;98648.78;5100326;28;20066;-94
2021/10/08 11:36:29;;;;;;;4.85;1.80;;;;;;;17.40;59.51;98695.66;5101928;28;20448;-94
2021/10/08 11:39:13;;;;;;;4.82;1.98;;;;;;;17.43;59.26;98667.72;5095917;28;20056;-96
2021/10/08 11:41:42;;;;;;;5.22;1.95;;;;;;;17.20;60.03;98682.47;5103065;28;20048;-95
2021/10/08 11:44:17;;;;;;;4.78;2.03;;;;;;;17.20;59.92;98661.81;5099622;28;20500;-94
2021/10/08 11:52:46;;;;;;;3.90;1.60;;;;;;;16.55;62.36;98663.56;5135531;27;20741;-94